sensor_id;sensor_type;location;lat;lon;timestamp;pressure;altitude;pressure_sealevel;temperature;humidity
10587;BME280;5341;47.606;7.576;2023-03-11T00:00:55;97935.00;;;9.51;57.15
10587;BME280;5341;47.606;7.576;2023-03-11T00:03:23;97936.22;;;9.49;57.09
10587;BME280;5341;47.606;7.576;2023-03-11T00:05:53;97941.56;;;9.49;56.90
10587;BME280;5341;47.606;7.576;2023-03-11T00:08:22;97945.06;;;9.49;57.07
10587;BME280;5341;47.606;7.576;2023-03-11T00:10:52;97930.06;;;9.48;56.91
10587;BME280;5341;47.606;7.576;2023-03-11T00:13:20;97931.28;;;9.46;56.86
10587;BME280;5341;47.606;7.576;2023-03-11T00:15:49;97938.47;;;9.45;56.86
10587;BME280;5341;47.606;7.576;2023-03-11T00:18:17;97963.13;;;9.47;57.01
10587;BME280;5341;47.606;7.576;2023-03-11T00:20:45;97958.78;;;9.46;56.60
10587;BME280;5341;47.606;7.576;2023-03-11T00:23:14;97937.63;;;9.45;56.97
10587;BME280;5341;47.606;7.576;2023-03-11T00:25:44;97956.50;;;9.43;57.02
10587;BME280;5341;47.606;7.576;2023-03-11T00:28:12;97963.69;;;9.43;57.02
10587;BME280;5341;47.606;7.576;2023-03-11T00:30:41;97952.78;;;9.37;56.87
10587;BME280;5341;47.606;7.576;2023-03-11T00:33:10;97944.16;;;9.35;57.21
10587;BME280;5341;47.606;7.576;2023-03-11T00:35:41;97944.34;;;9.34;57.27
10587;BME280;5341;47.606;7.576;2023-03-11T00:38:12;97936.50;;;9.32;57.59
10587;BME280;5341;47.606;7.576;2023-03-11T00:40:40;97942.25;;;9.29;57.22
10587;BME280;5341;47.606;7.576;2023-03-11T00:43:07;97949.41;;;9.29;57.43
10587;BME280;5341;47.606;7.576;2023-03-11T00:45:35;97946.75;;;9.29;57.81
10587;BME280;5341;47.606;7.576;2023-03-11T00:48:03;97939.97;;;9.26;57.78
10587;BME280;5341;47.606;7.576;2023-03-11T00:50:33;97944.88;;;9.23;58.29
10587;BME280;5341;47.606;7.576;2023-03-11T00:53:03;97948.72;;;9.20;58.57
10587;BME280;5341;47.606;7.576;2023-03-11T00:55:32;97956.09;;;9.18;58.45
10587;BME280;5341;47.606;7.576;2023-03-11T00:58:05;97948.94;;;9.19;58.68
10587;BME280;5341;47.606;7.576;2023-03-11T01:00:53;97945.44;;;9.18;58.95
10587;BME280;5341;47.606;7.576;2023-03-11T01:03:21;97947.69;;;9.15;58.76
10587;BME280;5341;47.606;7.576;2023-03-11T01:05:48;97949.72;;;9.13;58.49
10587;BME280;5341;47.606;7.576;2023-03-11T01:08:17;97954.78;;;9.07;58.62
10587;BME280;5341;47.606;7.576;2023-03-11T01:10:46;97951.69;;;9.04;59.15
10587;BME280;5341;47.606;7.576;2023-03-11T01:13:13;97943.06;;;9.02;58.95
10587;BME280;5341;47.606;7.576;2023-03-11T01:15:42;97938.31;;;8.97;59.01
10587;BME280;5341;47.606;7.576;2023-03-11T01:18:11;97942.16;;;8.95;59.08
10587;BME280;5341;47.606;7.576;2023-03-11T01:20:38;97954.88;;;8.93;59.16
10587;BME280;5341;47.606;7.576;2023-03-11T01:23:06;97965.09;;;8.89;59.22
10587;BME280;5341;47.606;7.576;2023-03-11T01:25:36;97962.00;;;8.86;59.09
10587;BME280;5341;47.606;7.576;2023-03-11T01:28:05;97928.34;;;8.85;59.62
10587;BME280;5341;47.606;7.576;2023-03-11T01:30:34;97911.69;;;8.82;59.29
10587;BME280;5341;47.606;7.576;2023-03-11T01:33:03;97907.19;;;8.83;58.88
10587;BME280;5341;47.606;7.576;2023-03-11T01:35:31;97913.34;;;8.84;59.30
10587;BME280;5341;47.606;7.576;2023-03-11T01:37:59;97925.44;;;8.79;59.22
10587;BME280;5341;47.606;7.576;2023-03-11T01:40:29;97945.72;;;8.80;59.16
10587;BME280;5341;47.606;7.576;2023-03-11T01:43:03;97947.19;;;8.83;59.27
10587;BME280;5341;47.606;7.576;2023-03-11T01:45:41;97931.03;;;8.85;59.46
10587;BME280;5341;47.606;7.576;2023-03-11T01:48:30;97927.34;;;8.86;59.42
10587;BME280;5341;47.606;7.576;2023-03-11T01:50:57;97907.84;;;8.85;59.17
10587;BME280;5341;47.606;7.576;2023-03-11T01:53:25;97905.56;;;8.82;59.22
10587;BME280;5341;47.606;7.576;2023-03-11T01:55:53;97898.38;;;8.82;58.86
10587;BME280;5341;47.606;7.576;2023-03-11T01:58:24;97894.88;;;8.82;59.28
10587;BME280;5341;47.606;7.576;2023-03-11T02:00:52;97886.88;;;8.82;58.96
10587;BME280;5341;47.606;7.576;2023-03-11T02:03:25;97871.28;;;8.79;59.35
10587;BME280;5341;47.606;7.576;2023-03-11T02:05:54;97891.78;;;8.78;59.09
10587;BME280;5341;47.606;7.576;2023-03-11T02:08:23;97892.63;;;8.79;59.46
10587;BME280;5341;47.606;7.576;2023-03-11T02:10:52;97893.25;;;8.81;59.42
10587;BME280;5341;47.606;7.576;2023-03-11T02:13:20;97901.88;;;8.83;59.49
10587;BME280;5341;47.606;7.576;2023-03-11T02:15:49;97898.19;;;8.84;59.33
10587;BME280;5341;47.606;7.576;2023-03-11T02:18:20;97904.38;;;8.85;59.26
10587;BME280;5341;47.606;7.576;2023-03-11T02:20:51;97906.19;;;8.84;59.52
10587;BME280;5341;47.606;7.576;2023-03-11T02:23:24;97913.19;;;8.85;59.48
10587;BME280;5341;47.606;7.576;2023-03-11T02:25:58;97940.19;;;8.82;59.41
10587;BME280;5341;47.606;7.576;2023-03-11T02:28:33;97935.69;;;8.82;59.41
10587;BME280;5341;47.606;7.576;2023-03-11T02:31:06;97929.34;;;8.84;59.21
10587;BME280;5341;47.606;7.576;2023-03-11T02:33:35;97939.84;;;8.85;59.39
10587;BME280;5341;47.606;7.576;2023-03-11T02:36:04;97934.50;;;8.85;59.36
10587;BME280;5341;47.606;7.576;2023-03-11T02:38:32;97920.97;;;8.87;59.41
10587;BME280;5341;47.606;7.576;2023-03-11T02:41:00;97911.97;;;8.88;59.49
10587;BME280;5341;47.606;7.576;2023-03-11T02:43:35;97911.16;;;8.87;59.32
10587;BME280;5341;47.606;7.576;2023-03-11T02:46:06;97906.63;;;8.88;59.52
10587;BME280;5341;47.606;7.576;2023-03-11T02:48:36;97906.63;;;8.88;59.25
10587;BME280;5341;47.606;7.576;2023-03-11T02:51:05;97905.81;;;8.87;59.58
10587;BME280;5341;47.606;7.576;2023-03-11T02:53:38;97904.53;;;8.83;59.06
10587;BME280;5341;47.606;7.576;2023-03-11T02:56:10;97925.03;;;8.82;59.26
10587;BME280;5341;47.606;7.576;2023-03-11T02:58:41;97920.72;;;8.81;59.14
10587;BME280;5341;47.606;7.576;2023-03-11T03:01:10;97921.75;;;8.80;58.96
10587;BME280;5341;47.606;7.576;2023-03-11T03:03:39;97921.75;;;8.80;59.37
10587;BME280;5341;47.606;7.576;2023-03-11T03:06:06;97909.44;;;8.79;59.69
10587;BME280;5341;47.606;7.576;2023-03-11T03:08:34;97907.59;;;8.80;59.68
10587;BME280;5341;47.606;7.576;2023-03-11T03:11:03;97906.75;;;8.79;58.98
10587;BME280;5341;47.606;7.576;2023-03-11T03:13:30;97913.31;;;8.77;59.32
10587;BME280;5341;47.606;7.576;2023-03-11T03:15:59;97909.00;;;8.76;59.19
10587;BME280;5341;47.606;7.576;2023-03-11T03:18:27;97897.72;;;8.74;59.12
10587;BME280;5341;47.606;7.576;2023-03-11T03:20:55;97922.53;;;8.74;59.27
10587;BME280;5341;47.606;7.576;2023-03-11T03:23:23;97931.34;;;8.75;59.40
10587;BME280;5341;47.606;7.576;2023-03-11T03:25:50;97930.50;;;8.74;59.36
10587;BME280;5341;47.606;7.576;2023-03-11T03:28:19;97927.84;;;8.74;59.50
10587;BME280;5341;47.606;7.576;2023-03-11T03:30:49;97930.50;;;8.74;59.67
10587;BME280;5341;47.606;7.576;2023-03-11T03:33:18;97922.72;;;8.73;59.50
10587;BME280;5341;47.606;7.576;2023-03-11T03:35:47;97941.53;;;8.71;59.60
10587;BME280;5341;47.606;7.576;2023-03-11T03:38:25;97952.19;;;8.71;59.70
10587;BME280;5341;47.606;7.576;2023-03-11T03:40:53;97959.38;;;8.71;59.67
10587;BME280;5341;47.606;7.576;2023-03-11T03:43:21;97954.22;;;8.69;59.70
10587;BME280;5341;47.606;7.576;2023-03-11T03:45:57;97944.59;;;8.68;59.17
10587;BME280;5341;47.606;7.576;2023-03-11T03:48:30;97943.75;;;8.68;59.75
10587;BME280;5341;47.606;7.576;2023-03-11T03:51:02;97938.81;;;8.65;59.21
10587;BME280;5341;47.606;7.576;2023-03-11T03:53:33;97943.31;;;8.64;59.31
10587;BME280;5341;47.606;7.576;2023-03-11T03:56:02;97940.03;;;8.62;59.20
10587;BME280;5341;47.606;7.576;2023-03-11T03:58:34;97932.88;;;8.63;59.23
10587;BME280;5341;47.606;7.576;2023-03-11T04:01:06;97929.38;;;8.62;59.40
10587;BME280;5341;47.606;7.576;2023-03-11T04:03:38;97919.53;;;8.63;59.15
10587;BME280;5341;47.606;7.576;2023-03-11T04:06:15;97929.56;;;8.61;59.13
10587;BME280;5341;47.606;7.576;2023-03-11T04:08:49;97926.91;;;8.61;59.21
10587;BME280;5341;47.606;7.576;2023-03-11T04:11:18;97931.41;;;8.60;59.08
10587;BME280;5341;47.606;7.576;2023-03-11T04:13:47;97939.41;;;8.60;59.07
10587;BME280;5341;47.606;7.576;2023-03-11T04:16:18;97935.06;;;8.59;58.88
10587;BME280;5341;47.606;7.576;2023-03-11T04:18:48;97938.75;;;8.58;58.76
10587;BME280;5341;47.606;7.576;2023-03-11T04:21:16;97938.94;;;8.57;59.22
10587;BME280;5341;47.606;7.576;2023-03-11T04:23:45;97952.44;;;8.55;58.76
10587;BME280;5341;47.606;7.576;2023-03-11T04:26:16;97959.63;;;8.55;58.94
10587;BME280;5341;47.606;7.576;2023-03-11T04:28:43;97960.63;;;8.54;58.88
10587;BME280;5341;47.606;7.576;2023-03-11T04:31:12;97958.16;;;8.52;58.74
10587;BME280;5341;47.606;7.576;2023-03-11T04:33:40;97954.69;;;8.51;58.97
10587;BME280;5341;47.606;7.576;2023-03-11T04:36:11;97960.19;;;8.50;58.79
10587;BME280;5341;47.606;7.576;2023-03-11T04:38:41;97954.25;;;8.48;58.66
10587;BME280;5341;47.606;7.576;2023-03-11T04:41:11;97956.25;;;8.46;58.88
10587;BME280;5341;47.606;7.576;2023-03-11T04:43:43;97962.59;;;8.45;58.88
10587;BME280;5341;47.606;7.576;2023-03-11T04:46:11;97967.91;;;8.45;58.63
10587;BME280;5341;47.606;7.576;2023-03-11T04:48:40;97977.13;;;8.42;58.84
10587;BME280;5341;47.606;7.576;2023-03-11T04:51:12;97969.50;;;8.39;58.92
10587;BME280;5341;47.606;7.576;2023-03-11T04:53:41;97984.84;;;8.37;58.70
10587;BME280;5341;47.606;7.576;2023-03-11T04:56:08;97989.53;;;8.35;58.43
10587;BME280;5341;47.606;7.576;2023-03-11T04:58:37;97978.19;;;8.33;58.63
10587;BME280;5341;47.606;7.576;2023-03-11T05:01:06;97960.56;;;8.32;58.73
10587;BME280;5341;47.606;7.576;2023-03-11T05:03:34;97967.94;;;8.30;58.63
10587;BME280;5341;47.606;7.576;2023-03-11T05:06:04;97974.47;;;8.28;58.68
10587;BME280;5341;47.606;7.576;2023-03-11T05:08:34;97981.63;;;8.27;58.40
10587;BME280;5341;47.606;7.576;2023-03-11T05:11:04;97980.16;;;8.25;58.68
10587;BME280;5341;47.606;7.576;2023-03-11T05:13:32;97975.00;;;8.23;58.66
10587;BME280;5341;47.606;7.576;2023-03-11T05:16:00;97981.34;;;8.22;58.61
10587;BME280;5341;47.606;7.576;2023-03-11T05:18:30;97963.91;;;8.19;58.67
10587;BME280;5341;47.606;7.576;2023-03-11T05:21:00;97978.22;;;8.18;58.41
10587;BME280;5341;47.606;7.576;2023-03-11T05:23:36;97972.28;;;8.16;58.40
10587;BME280;5341;47.606;7.576;2023-03-11T05:26:05;97979.63;;;8.14;59.00
10587;BME280;5341;47.606;7.576;2023-03-11T05:28:35;97982.47;;;8.13;58.40
10587;BME280;5341;47.606;7.576;2023-03-11T05:31:07;97976.50;;;8.11;58.43
10587;BME280;5341;47.606;7.576;2023-03-11T05:33:38;97960.06;;;8.07;58.39
10587;BME280;5341;47.606;7.576;2023-03-11T05:36:10;97953.28;;;8.05;58.69
10587;BME280;5341;47.606;7.576;2023-03-11T05:38:43;97955.13;;;8.04;58.75
10587;BME280;5341;47.606;7.576;2023-03-11T05:41:13;97957.16;;;8.02;58.57
10587;BME280;5341;47.606;7.576;2023-03-11T05:43:48;97962.47;;;8.02;58.43
10587;BME280;5341;47.606;7.576;2023-03-11T05:46:17;97968.81;;;8.01;58.57
10587;BME280;5341;47.606;7.576;2023-03-11T05:48:46;97975.97;;;8.01;58.61
10587;BME280;5341;47.606;7.576;2023-03-11T05:51:15;97974.31;;;8.00;58.47
10587;BME280;5341;47.606;7.576;2023-03-11T05:53:47;97977.81;;;8.00;58.72
10587;BME280;5341;47.606;7.576;2023-03-11T05:56:22;97976.13;;;7.99;58.53
10587;BME280;5341;47.606;7.576;2023-03-11T05:58:53;97977.00;;;8.00;58.79
10587;BME280;5341;47.606;7.576;2023-03-11T06:01:26;97971.00;;;7.98;58.67
10587;BME280;5341;47.606;7.576;2023-03-11T06:03:56;97981.00;;;7.96;58.81
10587;BME280;5341;47.606;7.576;2023-03-11T06:06:25;97981.19;;;7.94;58.86
10587;BME280;5341;47.606;7.576;2023-03-11T06:08:55;97984.03;;;7.92;58.78
10587;BME280;5341;47.606;7.576;2023-03-11T06:11:26;97991.41;;;7.90;58.70
10587;BME280;5341;47.606;7.576;2023-03-11T06:13:56;97996.91;;;7.89;58.92
10587;BME280;5341;47.606;7.576;2023-03-11T06:16:30;97992.59;;;7.88;58.89
10587;BME280;5341;47.606;7.576;2023-03-11T06:21:26;98008.09;;;7.84;58.73
10587;BME280;5341;47.606;7.576;2023-03-11T06:24:09;98007.25;;;7.84;58.73
10587;BME280;5341;47.606;7.576;2023-03-11T06:26:38;98008.28;;;7.83;58.58
10587;BME280;5341;47.606;7.576;2023-03-11T06:29:08;98011.75;;;7.83;58.62
10587;BME280;5341;47.606;7.576;2023-03-11T06:31:39;98018.72;;;7.84;58.69
10587;BME280;5341;47.606;7.576;2023-03-11T06:34:11;98030.41;;;7.83;58.52
10587;BME280;5341;47.606;7.576;2023-03-11T06:36:39;98031.22;;;7.84;58.67
10587;BME280;5341;47.606;7.576;2023-03-11T06:39:07;98025.06;;;7.83;58.59
10587;BME280;5341;47.606;7.576;2023-03-11T06:41:37;98025.06;;;7.83;58.68
10587;BME280;5341;47.606;7.576;2023-03-11T06:44:06;98019.94;;;7.82;58.75
10587;BME280;5341;47.606;7.576;2023-03-11T06:46:35;98024.44;;;7.81;58.69
10587;BME280;5341;47.606;7.576;2023-03-11T06:49:03;98032.41;;;7.81;58.43
10587;BME280;5341;47.606;7.576;2023-03-11T06:51:32;98036.91;;;7.81;58.44
10587;BME280;5341;47.606;7.576;2023-03-11T06:53:59;98035.25;;;7.80;58.68
10587;BME280;5341;47.606;7.576;2023-03-11T06:56:27;98031.59;;;7.81;58.66
10587;BME280;5341;47.606;7.576;2023-03-11T06:59:01;98028.94;;;7.81;58.66
10587;BME280;5341;47.606;7.576;2023-03-11T07:01:31;98028.94;;;7.81;58.73
10587;BME280;5341;47.606;7.576;2023-03-11T07:04:00;98028.75;;;7.82;58.71
10587;BME280;5341;47.606;7.576;2023-03-11T07:06:28;98031.22;;;7.84;58.76
10587;BME280;5341;47.606;7.576;2023-03-11T07:09:04;98032.88;;;7.85;58.65
10587;BME280;5341;47.606;7.576;2023-03-11T07:11:34;98025.72;;;7.85;58.58
10587;BME280;5341;47.606;7.576;2023-03-11T07:14:09;98030.84;;;7.87;58.86
10587;BME280;5341;47.606;7.576;2023-03-11T07:16:41;98029.03;;;7.87;58.74
10587;BME280;5341;47.606;7.576;2023-03-11T07:19:20;98019.22;;;7.88;58.94
10587;BME280;5341;47.606;7.576;2023-03-11T07:21:47;98038.69;;;7.88;58.67
10587;BME280;5341;47.606;7.576;2023-03-11T07:24:14;98046.47;;;7.90;58.79
10587;BME280;5341;47.606;7.576;2023-03-11T07:26:42;98045.66;;;7.89;58.78
10587;BME280;5341;47.606;7.576;2023-03-11T07:29:11;98063.28;;;7.90;58.79
10587;BME280;5341;47.606;7.576;2023-03-11T07:31:38;98059.78;;;7.90;58.78
10587;BME280;5341;47.606;7.576;2023-03-11T07:34:11;98057.94;;;7.90;58.93
10587;BME280;5341;47.606;7.576;2023-03-11T07:36:40;98067.78;;;7.90;58.64
10587;BME280;5341;47.606;7.576;2023-03-11T07:39:12;98069.59;;;7.89;59.10
10587;BME280;5341;47.606;7.576;2023-03-11T07:41:40;98067.78;;;7.90;58.95
10587;BME280;5341;47.606;7.576;2023-03-11T07:44:12;98078.41;;;7.90;58.95
10587;BME280;5341;47.606;7.576;2023-03-11T07:46:40;98095.22;;;7.90;58.75
10587;BME280;5341;47.606;7.576;2023-03-11T07:49:07;98094.56;;;7.88;58.77
10587;BME280;5341;47.606;7.576;2023-03-11T07:51:36;98097.22;;;7.88;58.83
10587;BME280;5341;47.606;7.576;2023-03-11T07:54:07;98090.91;;;7.89;58.73
10587;BME280;5341;47.606;7.576;2023-03-11T07:56:34;98100.53;;;7.90;58.89
10587;BME280;5341;47.606;7.576;2023-03-11T07:59:03;98104.03;;;7.91;58.83
10587;BME280;5341;47.606;7.576;2023-03-11T08:01:32;98107.31;;;7.93;58.63
10587;BME280;5341;47.606;7.576;2023-03-11T08:04:06;98102.81;;;7.93;58.80
10587;BME280;5341;47.606;7.576;2023-03-11T08:06:35;98108.16;;;7.93;58.70
10587;BME280;5341;47.606;7.576;2023-03-11T08:09:07;98106.31;;;7.94;58.78
10587;BME280;5341;47.606;7.576;2023-03-11T08:11:35;98111.63;;;7.94;58.87
10587;BME280;5341;47.606;7.576;2023-03-11T08:14:03;98108.97;;;7.94;59.07
10587;BME280;5341;47.606;7.576;2023-03-11T08:16:32;98106.97;;;7.96;58.73
10587;BME280;5341;47.606;7.576;2023-03-11T08:19:00;98104.09;;;7.98;59.08
10587;BME280;5341;47.606;7.576;2023-03-11T08:21:29;98098.78;;;7.98;58.78
10587;BME280;5341;47.606;7.576;2023-03-11T08:23:57;98100.44;;;7.99;59.00
10587;BME280;5341;47.606;7.576;2023-03-11T08:26:26;98097.78;;;7.99;58.87
10587;BME280;5341;47.606;7.576;2023-03-11T08:28:54;98110.09;;;8.00;58.67
10587;BME280;5341;47.606;7.576;2023-03-11T08:31:23;98107.25;;;8.01;59.08
10587;BME280;5341;47.606;7.576;2023-03-11T08:33:54;98104.41;;;8.03;58.84
10587;BME280;5341;47.606;7.576;2023-03-11T08:36:22;98102.75;;;8.02;58.77
10587;BME280;5341;47.606;7.576;2023-03-11T08:38:49;98108.91;;;8.02;58.85
10587;BME280;5341;47.606;7.576;2023-03-11T08:41:17;98115.06;;;8.03;58.99
10587;BME280;5341;47.606;7.576;2023-03-11T08:43:45;98112.22;;;8.04;58.70
10587;BME280;5341;47.606;7.576;2023-03-11T08:46:16;98121.03;;;8.05;59.27
10587;BME280;5341;47.606;7.576;2023-03-11T08:48:44;98127.00;;;8.07;58.94
10587;BME280;5341;47.606;7.576;2023-03-11T08:51:14;98121.28;;;8.10;59.04
10587;BME280;5341;47.606;7.576;2023-03-11T08:53:41;98129.09;;;8.11;59.04
10587;BME280;5341;47.606;7.576;2023-03-11T08:56:09;98124.44;;;8.13;59.41
10587;BME280;5341;47.606;7.576;2023-03-11T08:58:36;98142.06;;;8.14;59.03
10587;BME280;5341;47.606;7.576;2023-03-11T09:01:04;98148.88;;;8.17;59.04
10587;BME280;5341;47.606;7.576;2023-03-11T09:03:31;98151.34;;;8.18;59.28
10587;BME280;5341;47.606;7.576;2023-03-11T09:06:00;98165.47;;;8.19;59.45
10587;BME280;5341;47.606;7.576;2023-03-11T09:08:29;98167.13;;;8.20;59.38
10587;BME280;5341;47.606;7.576;2023-03-11T09:10:57;98170.44;;;8.22;59.33
10587;BME280;5341;47.606;7.576;2023-03-11T09:13:24;98171.25;;;8.22;59.38
10587;BME280;5341;47.606;7.576;2023-03-11T09:15:52;98180.75;;;8.25;59.83
10587;BME280;5341;47.606;7.576;2023-03-11T09:18:20;98181.41;;;8.27;59.74
10587;BME280;5341;47.606;7.576;2023-03-11T09:20:47;98192.50;;;8.31;59.59
10587;BME280;5341;47.606;7.576;2023-03-11T09:23:16;98193.13;;;8.33;59.69
10587;BME280;5341;47.606;7.576;2023-03-11T09:25:45;98196.47;;;8.35;59.64
10587;BME280;5341;47.606;7.576;2023-03-11T09:28:14;98195.47;;;8.36;59.68
10587;BME280;5341;47.606;7.576;2023-03-11T09:30:43;98196.13;;;8.38;60.12
10587;BME280;5341;47.606;7.576;2023-03-11T09:33:10;98194.13;;;8.40;59.88
10587;BME280;5341;47.606;7.576;2023-03-11T09:35:38;98191.06;;;8.43;59.96
10587;BME280;5341;47.606;7.576;2023-03-11T09:38:05;98192.72;;;8.44;60.05
10587;BME280;5341;47.606;7.576;2023-03-11T09:40:48;98189.06;;;8.45;60.14
10587;BME280;5341;47.606;7.576;2023-03-11T09:43:24;98186.19;;;8.46;59.85
10587;BME280;5341;47.606;7.576;2023-03-11T09:46:03;98198.16;;;8.50;60.04
10587;BME280;5341;47.606;7.576;2023-03-11T09:48:36;98198.16;;;8.50;60.25
10587;BME280;5341;47.606;7.576;2023-03-11T09:51:09;98202.13;;;8.55;59.98
10587;BME280;5341;47.606;7.576;2023-03-11T09:53:43;98193.09;;;8.56;60.22
10587;BME280;5341;47.606;7.576;2023-03-11T09:56:14;98196.41;;;8.58;60.54
10587;BME280;5341;47.606;7.576;2023-03-11T09:58:45;98199.72;;;8.60;60.42
10587;BME280;5341;47.606;7.576;2023-03-11T10:01:16;98200.38;;;8.62;60.24
10587;BME280;5341;47.606;7.576;2023-03-11T10:03:45;98194.88;;;8.63;60.33
10587;BME280;5341;47.606;7.576;2023-03-11T10:06:16;98197.97;;;8.67;60.35
10587;BME280;5341;47.606;7.576;2023-03-11T10:08:46;98189.41;;;8.71;60.63
10587;BME280;5341;47.606;7.576;2023-03-11T10:11:50;98202.03;;;8.77;60.61
10587;BME280;5341;47.606;7.576;2023-03-11T10:14:32;98201.66;;;8.80;60.68
10587;BME280;5341;47.606;7.576;2023-03-11T10:17:12;98194.09;;;8.84;60.58
10587;BME280;5341;47.606;7.576;2023-03-11T10:19:44;98201.38;;;8.90;60.84
10587;BME280;5341;47.606;7.576;2023-03-11T10:22:17;98188.50;;;8.94;60.44
10587;BME280;5341;47.606;7.576;2023-03-11T10:24:57;98194.94;;;8.99;60.85
10587;BME280;5341;47.606;7.576;2023-03-11T10:27:36;98188.41;;;9.02;60.41
10587;BME280;5341;47.606;7.576;2023-03-11T10:30:19;98195.84;;;9.06;60.41
10587;BME280;5341;47.606;7.576;2023-03-11T10:32:52;98195.47;;;9.09;60.61
10587;BME280;5341;47.606;7.576;2023-03-11T10:35:22;98193.25;;;9.13;60.43
10587;BME280;5341;47.606;7.576;2023-03-11T10:37:53;98186.34;;;9.19;60.51
10587;BME280;5341;47.606;7.576;2023-03-11T10:40:25;98181.28;;;9.24;60.99
10587;BME280;5341;47.606;7.576;2023-03-11T10:42:58;98180.69;;;9.28;60.80
10587;BME280;5341;47.606;7.576;2023-03-11T10:45:32;98182.63;;;9.34;60.67
10587;BME280;5341;47.606;7.576;2023-03-11T10:48:08;98184.09;;;9.37;60.10
10587;BME280;5341;47.606;7.576;2023-03-11T10:50:36;98182.50;;;9.43;60.84
10587;BME280;5341;47.606;7.576;2023-03-11T10:53:08;98174.78;;;9.48;60.33
10587;BME280;5341;47.606;7.576;2023-03-11T10:55:45;98172.34;;;9.53;61.02
10587;BME280;5341;47.606;7.576;2023-03-11T10:58:16;98179.81;;;9.57;60.93
10587;BME280;5341;47.606;7.576;2023-03-11T11:00:43;98177.38;;;9.62;60.72
10587;BME280;5341;47.606;7.576;2023-03-11T11:03:19;98164.47;;;9.66;60.37
10587;BME280;5341;47.606;7.576;2023-03-11T11:05:57;98162.25;;;9.69;59.93
10587;BME280;5341;47.606;7.576;2023-03-11T11:08:25;98159.00;;;9.74;59.38
10587;BME280;5341;47.606;7.576;2023-03-11T11:10:54;98174.81;;;9.76;59.10
10587;BME280;5341;47.606;7.576;2023-03-11T11:13:25;98175.47;;;9.78;58.53
10587;BME280;5341;47.606;7.576;2023-03-11T11:15:57;98173.06;;;9.83;59.00
10587;BME280;5341;47.606;7.576;2023-03-11T11:18:27;98171.84;;;9.85;58.37
10587;BME280;5341;47.606;7.576;2023-03-11T11:21:01;98166.31;;;9.87;58.16
10587;BME280;5341;47.606;7.576;2023-03-11T11:23:33;98173.09;;;9.89;58.09
10587;BME280;5341;47.606;7.576;2023-03-11T11:26:05;98178.88;;;9.93;57.66
10587;BME280;5341;47.606;7.576;2023-03-11T11:28:36;98160.84;;;9.95;57.63
10587;BME280;5341;47.606;7.576;2023-03-11T11:31:05;98164.75;;;9.99;58.26
10587;BME280;5341;47.606;7.576;2023-03-11T11:33:38;98167.31;;;10.07;59.02
10587;BME280;5341;47.606;7.576;2023-03-11T11:36:13;98169.19;;;10.13;58.68
10587;BME280;5341;47.606;7.576;2023-03-11T11:38:41;98177.09;;;10.21;59.12
10587;BME280;5341;47.606;7.576;2023-03-11T11:41:14;98178.63;;;10.31;59.29
10587;BME280;5341;47.606;7.576;2023-03-11T11:43:47;98173.31;;;10.37;59.52
10587;BME280;5341;47.606;7.576;2023-03-11T11:46:23;98163.50;;;10.44;58.88
10587;BME280;5341;47.606;7.576;2023-03-11T11:49:09;98166.19;;;10.51;58.14
10587;BME280;5341;47.606;7.576;2023-03-11T11:51:43;98153.06;;;10.56;59.03
10587;BME280;5341;47.606;7.576;2023-03-11T11:54:17;98161.13;;;10.63;58.28
10587;BME280;5341;47.606;7.576;2023-03-11T11:56:46;98171.41;;;10.66;57.71
10587;BME280;5341;47.606;7.576;2023-03-11T11:59:18;98179.88;;;10.69;57.50
10587;BME280;5341;47.606;7.576;2023-03-11T12:01:55;98178.47;;;10.73;57.91
10587;BME280;5341;47.606;7.576;2023-03-11T12:04:46;98171.94;;;10.82;58.54
10587;BME280;5341;47.606;7.576;2023-03-11T12:07:37;98162.91;;;10.90;58.90
10587;BME280;5341;47.606;7.576;2023-03-11T12:10:20;98154.50;;;11.00;59.37
10587;BME280;5341;47.606;7.576;2023-03-11T12:15:54;98146.34;;;11.14;59.07
10587;BME280;5341;47.606;7.576;2023-03-11T12:18:30;98136.88;;;11.25;59.09
10587;BME280;5341;47.606;7.576;2023-03-11T12:21:09;98135.69;;;11.34;58.22
10587;BME280;5341;47.606;7.576;2023-03-11T12:23:51;98121.72;;;11.45;57.52
10587;BME280;5341;47.606;7.576;2023-03-11T12:26:25;98118.84;;;11.54;58.32
10587;BME280;5341;47.606;7.576;2023-03-11T12:28:57;98124.19;;;11.60;57.73
10587;BME280;5341;47.606;7.576;2023-03-11T12:31:29;98130.16;;;11.62;56.93
10587;BME280;5341;47.606;7.576;2023-03-11T12:34:06;98130.38;;;11.61;56.40
10587;BME280;5341;47.606;7.576;2023-03-11T12:36:38;98130.38;;;11.61;56.80
10587;BME280;5341;47.606;7.576;2023-03-11T12:39:17;98128.50;;;11.61;56.30
10587;BME280;5341;47.606;7.576;2023-03-11T12:41:46;98118.22;;;11.58;56.10
10587;BME280;5341;47.606;7.576;2023-03-11T12:44:22;98121.50;;;11.60;56.00
10587;BME280;5341;47.606;7.576;2023-03-11T12:53:02;98109.56;;;11.56;54.70
10587;BME280;5341;47.606;7.576;2023-03-11T12:55:32;98105.88;;;11.57;54.98
10587;BME280;5341;47.606;7.576;2023-03-11T13:01:05;98097.84;;;11.57;53.93
10587;BME280;5341;47.606;7.576;2023-03-11T13:03:46;98100.72;;;11.56;54.18
10587;BME280;5341;47.606;7.576;2023-03-11T13:06:30;98104.00;;;11.58;54.27
10587;BME280;5341;47.606;7.576;2023-03-11T13:09:12;98108.75;;;11.62;54.79
10587;BME280;5341;47.606;7.576;2023-03-11T13:11:45;98099.28;;;11.66;54.61
10587;BME280;5341;47.606;7.576;2023-03-11T13:14:31;98104.63;;;11.73;54.50
10587;BME280;5341;47.606;7.576;2023-03-11T13:17:31;98103.41;;;11.76;53.26
10587;BME280;5341;47.606;7.576;2023-03-11T13:20:00;98101.56;;;11.76;53.77
10587;BME280;5341;47.606;7.576;2023-03-11T13:23:07;98106.31;;;11.81;53.24
10587;BME280;5341;47.606;7.576;2023-03-11T13:25:37;98104.03;;;11.84;53.77
10587;BME280;5341;47.606;7.576;2023-03-11T13:28:34;98106.75;;;11.91;53.12
10587;BME280;5341;47.606;7.576;2023-03-11T13:31:20;98101.16;;;11.92;53.40
10587;BME280;5341;47.606;7.576;2023-03-11T13:33:52;98098.91;;;11.96;53.21
10587;BME280;5341;47.606;7.576;2023-03-11T13:36:35;98102.19;;;11.98;53.08
10587;BME280;5341;47.606;7.576;2023-03-11T13:39:24;98100.97;;;12.00;53.25
10587;BME280;5341;47.606;7.576;2023-03-11T13:41:56;98106.31;;;12.14;53.59
10587;BME280;5341;47.606;7.576;2023-03-11T13:44:28;98101.53;;;12.29;53.91
10587;BME280;5341;47.606;7.576;2023-03-11T13:47:01;98112.44;;;12.41;53.45
10587;BME280;5341;47.606;7.576;2023-03-11T13:49:38;98130.38;;;12.47;53.45
10587;BME280;5341;47.606;7.576;2023-03-11T13:52:11;98126.84;;;12.53;53.31
10587;BME280;5341;47.606;7.576;2023-03-11T13:54:46;98127.25;;;12.56;52.84
10587;BME280;5341;47.606;7.576;2023-03-11T13:57:23;98123.97;;;12.54;51.94